Time;durP1;ratioP1;P1;durP2;ratioP2;P2;SDS_P1;SDS_P2;PMS_P1;PMS_P2;Temp;Humidity;BMP_temperature;BMP_pressure;BME280_temperature;BME280_humidity;BME280_pressure;Samples;Min_cycle;Max_cycle;Signal;HPM_P1;HPM_P2
2021/04/13 08:01:59;;;;;;;25.23;14.48;;;384.00;1920.00;;;;;;4734123;30;20132;-81
2021/04/13 08:54:33;;;;;;;24.85;17.75;;;384.20;1971.20;;;;;;888433;24;20384;-81
2021/04/13 08:57:01;;;;;;;24.88;16.10;;;384.40;1996.80;;;;;;4794416;30;20056;-84
2021/04/13 08:59:33;;;;;;;24.50;16.27;;;384.30;2022.40;;;;;;4791363;29;20111;-84
2021/04/13 09:02:16;;;;;;;24.33;14.88;;;359.20;2124.80;;;;;;4777173;30;20047;-84
2021/04/13 09:04:42;;;;;;;27.13;17.80;;;359.20;2124.80;;;;;;4779637;30;20118;-84
2021/04/13 09:07:21;;;;;;;32.08;19.05;;;359.00;2176.00;;;;;;4808947;29;20049;-85
2021/04/13 09:10:28;;;;;;;28.75;16.50;;;358.80;2227.20;;;;;;4776553;30;20081;-83
2021/04/13 09:13:05;;;;;;;24.17;15.65;;;359.00;2176.00;;;;;;4775849;30;20421;-84
2021/04/13 09:15:32;;;;;;;25.85;16.52;;;359.00;2252.80;;;;;;4788618;29;20047;-82
2021/04/13 09:18:16;;;;;;;25.20;15.48;;;358.60;2304.00;;;;;;4773373;30;20038;-84
2021/04/13 09:21:09;;;;;;;21.27;15.80;;;358.60;2252.80;;;;;;4772958;29;20044;-84
2021/04/13 09:23:53;;;;;;;24.17;17.05;;;358.80;2201.60;;;;;;4715475;30;20128;-84
2021/04/13 09:26:18;;;;;;;;;;;358.80;2252.80;;;;;;4700693;30;20041;-85
2021/04/13 09:28:59;;;;;;;28.08;15.50;;;359.10;2227.20;;;;;;4717697;30;20323;-84
2021/04/13 09:31:45;;;;;;;27.42;15.07;;;358.90;2227.20;;;;;;4701101;30;20048;-82
2021/04/13 09:34:37;;;;;;;26.92;18.02;;;358.80;2201.60;;;;;;4700987;30;20136;-83
2021/04/13 09:37:05;;;;;;;27.95;18.02;;;358.60;2252.80;;;;;;4698328;30;20054;-80
2021/04/13 09:39:56;;;;;;;23.17;16.10;;;358.50;2329.60;;;;;;4683052;30;20041;-81
2021/04/13 09:43:05;;;;;;;26.50;17.33;;;358.50;2329.60;;;;;;4684092;30;20491;-80
2021/04/13 09:45:53;;;;;;;30.05;21.02;;;358.70;2304.00;;;;;;4697896;30;20058;-80
2021/04/13 09:48:27;;;;;;;27.33;20.35;;;358.80;2304.00;;;;;;4696512;30;20045;-81
2021/04/13 09:51:39;;;;;;;30.52;18.70;;;358.80;2304.00;;;;;;4681786;30;20050;-82
2021/04/13 09:54:18;;;;;;;29.77;17.48;;;358.70;2278.40;;;;;;4694695;30;20073;-83
2021/04/13 09:57:11;;;;;;;24.88;16.65;;;358.80;2201.60;;;;;;4696556;30;20065;-81
2021/04/13 10:00:23;;;;;;;25.33;17.38;;;358.80;2201.60;;;;;;4683779;30;20602;-82
2021/04/13 10:03:09;;;;;;;24.20;17.05;;;358.70;2252.80;;;;;;4700178;30;20033;-82
2021/04/13 10:05:47;;;;;;;26.67;17.45;;;358.70;2252.80;;;;;;4703904;30;20047;-83
2021/04/13 10:08:25;;;;;;;34.13;22.88;;;358.50;2304.00;;;;;;4719929;30;20043;-79
2021/04/13 10:11:09;;;;;;;25.73;17.55;;;358.40;2329.60;;;;;;4702492;30;20770;-83
2021/04/13 10:14:29;;;;;;;24.45;16.23;;;333.70;2329.60;;;;;;4720899;30;20044;-82
2021/04/13 10:17:32;;;;;;;23.85;16.27;;;358.40;2278.40;;;;;;4758562;30;20531;-84
2021/04/13 10:20:19;;;;;;;36.83;23.08;;;358.60;2278.40;;;;;;4757650;30;20131;-82
2021/04/13 10:23:20;;;;;;;30.63;19.33;;;358.50;2329.60;;;;;;4757115;30;20098;-83
2021/04/13 10:26:14;;;;;;;24.88;16.90;;;358.50;2304.00;;;;;;4739366;30;20044;-82
2021/04/13 10:29:17;;;;;;;26.65;18.15;;;358.50;2304.00;;;;;;4781084;29;20039;-81
2021/04/13 10:32:03;;;;;;;33.28;20.33;;;358.60;2329.60;;;;;;4771371;30;20477;-81
2021/04/13 10:35:01;;;;;;;33.15;22.63;;;358.60;2304.00;;;;;;4780027;29;20657;-83
2021/04/13 10:37:45;;;;;;;34.83;22.67;;;358.40;2329.60;;;;;;4765648;30;20056;-81
2021/04/13 10:40:43;;;;;;;39.58;22.98;;;333.70;2329.60;;;;;;4773561;29;20056;-83
2021/04/13 10:43:33;;;;;;;36.08;21.65;;;358.60;2304.00;;;;;;4776947;30;20493;-82
2021/04/13 10:46:14;;;;;;;27.77;18.15;;;358.60;2304.00;;;;;;4781663;29;20523;-82
2021/04/13 10:48:58;;;;;;;32.72;22.08;;;358.50;2329.60;;;;;;4765813;30;20043;-82
2021/04/13 10:52:02;;;;;;;39.05;22.27;;;358.60;2252.80;;;;;;4771669;30;20040;-81
2021/04/13 10:54:49;;;;;;;37.38;24.45;;;358.60;2252.80;;;;;;4759030;29;20056;-81
2021/04/13 10:57:47;;;;;;;32.03;21.35;;;358.80;2278.40;;;;;;4771286;30;20582;-80
2021/04/13 11:00:24;;;;;;;33.83;21.65;;;358.80;2304.00;;;;;;4743311;30;20143;-82
2021/04/13 11:03:17;;;;;;;34.13;22.77;;;358.90;2252.80;;;;;;4781851;29;20141;-82
2021/04/13 11:06:33;;;;;;;35.13;20.05;;;358.50;2329.60;;;;;;4771246;30;20067;-83
2021/04/13 11:09:14;;;;;;;35.92;22.10;;;358.80;2278.40;;;;;;4760736;30;20048;-81
2021/04/13 11:11:46;;;;;;;41.70;23.27;;;358.90;2278.40;;;;;;4768126;30;20043;-82
2021/04/13 11:14:37;;;;;;;30.47;20.27;;;358.50;2329.60;;;;;;4762072;30;20421;-81
2021/04/13 11:17:20;;;;;;;37.40;21.08;;;358.40;2329.60;;;;;;4771036;30;20497;-83
2021/04/13 11:20:02;;;;;;;38.40;23.60;;;333.60;2329.60;;;;;;4771046;30;20043;-84
2021/04/13 11:22:43;;;;;;;35.58;21.70;;;333.50;2329.60;;;;;;4771257;30;20051;-82
2021/04/13 11:25:20;;;;;;;30.90;19.80;;;333.60;2329.60;;;;;;4769506;30;20097;-82
2021/04/13 11:28:28;;;;;;;33.13;23.25;;;333.70;2329.60;;;;;;4767956;30;20106;-83
2021/04/13 11:31:51;;;;;;;34.53;21.33;;;358.40;2329.60;;;;;;4754920;30;20044;-80
2021/04/13 11:34:35;;;;;;;25.05;16.85;;;358.50;2329.60;;;;;;4718785;30;20438;-82
2021/04/13 11:37:24;;;;;;;27.05;17.85;;;333.60;2329.60;;;;;;4716988;30;20128;-82
2021/04/13 11:40:20;;;;;;;43.17;22.48;;;333.60;2329.60;;;;;;4711801;30;20132;-79
2021/04/13 11:42:50;;;;;;;38.75;23.77;;;333.60;2329.60;;;;;;4699779;30;20045;-83
2021/04/13 11:45:27;;;;;;;41.90;24.10;;;333.70;2329.60;;;;;;4705941;30;20045;-81
2021/04/13 11:48:03;;;;;;;40.80;25.20;;;358.60;2329.60;;;;;;4711056;30;20091;-83
2021/04/13 11:50:54;;;;;;;37.67;22.40;;;358.40;2329.60;;;;;;4711404;30;20072;-82
2021/04/13 11:53:38;;;;;;;43.15;27.02;;;358.50;2329.60;;;;;;4703855;30;20053;-81
2021/04/13 11:56:24;;;;;;;44.75;25.77;;;358.50;2329.60;;;;;;4705975;30;20137;-80
2021/04/13 11:59:17;;;;;;;20.20;13.13;;;358.40;2329.60;;;;;;4701527;30;20033;-85
2021/04/13 12:01:56;;;;;;;32.10;19.13;;;359.20;2329.60;;;;;;4716910;30;20169;-81
2021/04/13 12:04:40;;;;;;;37.80;24.65;;;384.00;2252.80;;;;;;4717117;30;20064;-82
2021/04/13 12:07:09;;;;;;;70.45;50.13;;;359.30;2329.60;;;;;;4727787;30;20045;-82
2021/04/13 12:09:49;;;;;;;56.28;37.22;;;359.10;2329.60;;;;;;4753825;30;20050;-82
2021/04/13 12:12:33;;;;;;;38.03;23.25;;;359.00;2329.60;;;;;;4797106;29;20047;-81
2021/04/13 12:15:19;;;;;;;43.00;26.25;;;358.60;2329.60;;;;;;4783212;29;20065;-81
2021/04/13 12:17:52;;;;;;;46.60;27.05;;;358.80;2329.60;;;;;;4774505;30;20069;-80
2021/04/13 12:20:35;;;;;;;39.17;25.35;;;359.00;2329.60;;;;;;4774065;30;20492;-81
2021/04/13 12:23:24;;;;;;;43.13;26.92;;;359.00;2329.60;;;;;;4772539;30;20443;-82
2021/04/13 12:25:50;;;;;;;35.17;26.98;;;359.20;2329.60;;;;;;4771132;30;20138;-84
2021/04/13 12:28:34;;;;;;;36.47;23.20;;;359.10;2329.60;;;;;;4769516;30;20464;-84
2021/04/13 12:31:05;;;;;;;42.83;25.77;;;384.00;2329.60;;;;;;4769946;30;20451;-82
2021/04/13 12:33:31;;;;;;;46.28;28.77;;;359.30;2329.60;;;;;;4770233;30;20046;-82
2021/04/13 12:36:08;;;;;;;45.70;30.08;;;359.20;2329.60;;;;;;4775079;29;20861;-80
2021/04/13 12:38:50;;;;;;;44.53;28.70;;;359.20;2329.60;;;;;;4772691;30;20043;-81
2021/04/13 12:41:29;;;;;;;35.33;25.20;;;359.00;2329.60;;;;;;4788308;30;20512;-81
2021/04/13 12:44:10;;;;;;;40.05;25.75;;;358.60;2329.60;;;;;;4789852;29;20035;-83
2021/04/13 12:46:36;;;;;;;36.78;23.70;;;358.60;2329.60;;;;;;4789115;29;20047;-81
2021/04/13 12:49:05;;;;;;;33.67;23.33;;;358.70;2329.60;;;;;;4772676;30;20154;-81
2021/04/13 12:51:52;;;;;;;36.63;23.67;;;358.50;2329.60;;;;;;4772649;30;20043;-82
2021/04/13 12:54:31;;;;;;;29.40;19.95;;;333.70;2329.60;;;;;;4788482;30;20043;-82
2021/04/13 12:57:16;;;;;;;30.00;21.45;;;333.70;2329.60;;;;;;4772421;29;20113;-81
2021/04/13 12:59:42;;;;;;;29.92;20.80;;;358.40;2329.60;;;;;;4772443;30;20043;-82
2021/04/13 13:02:28;;;;;;;35.70;21.63;;;333.60;2329.60;;;;;;4772690;30;20046;-81
2021/04/13 13:04:54;;;;;;;35.45;21.85;;;333.60;2329.60;;;;;;4772469;30;20126;-83
2021/04/13 13:07:23;;;;;;;29.00;20.65;;;333.40;2329.60;;;;;;4772782;30;20100;-81
2021/04/13 13:09:49;;;;;;;31.55;19.67;;;333.60;2329.60;;;;;;4772491;30;20031;-81
2021/04/13 13:12:22;;;;;;;35.97;19.48;;;333.70;2329.60;;;;;;4772042;30;20072;-80
2021/04/13 13:14:51;;;;;;;30.77;19.50;;;333.60;2329.60;;;;;;4788007;30;20051;-81
2021/04/13 13:17:35;;;;;;;21.67;14.43;;;333.60;2329.60;;;;;;4772573;30;20116;-81
2021/04/13 13:20:02;;;;;;;22.05;15.65;;;333.60;2329.60;;;;;;4788444;29;20039;-82
2021/04/13 13:22:30;;;;;;;24.75;17.02;;;333.70;2329.60;;;;;;4772388;30;20558;-81
2021/04/13 13:24:57;;;;;;;27.85;19.17;;;333.60;2329.60;;;;;;4772223;30;20048;-81
2021/04/13 13:27:29;;;;;;;36.42;24.27;;;333.60;2329.60;;;;;;4772270;30;20419;-81
2021/04/13 13:29:59;;;;;;;32.45;20.33;;;333.40;2329.60;;;;;;4771940;30;20092;-81
2021/04/13 13:32:27;;;;;;;22.80;16.48;;;333.30;2329.60;;;;;;4772841;29;20050;-82
2021/04/13 13:34:57;;;;;;;24.48;15.65;;;333.20;2329.60;;;;;;4772410;30;20138;-82
2021/04/13 13:37:34;;;;;;;23.00;15.23;;;332.90;2329.60;;;;;;4771934;30;20058;-81
2021/04/13 13:40:01;;;;;;;24.17;15.20;;;308.10;2304.00;;;;;;4774302;30;20401;-81
2021/04/13 13:42:28;;;;;;;24.20;16.10;;;332.90;2329.60;;;;;;4791344;29;20035;-81
2021/04/13 13:44:55;;;;;;;24.13;16.05;;;332.90;2329.60;;;;;;4775475;30;20087;-81
2021/04/13 13:47:30;;;;;;;19.92;13.10;;;308.10;2304.00;;;;;;4773149;29;20031;-84
2021/04/13 13:50:26;;;;;;;25.38;13.60;;;333.40;2329.60;;;;;;4768213;30;20100;-82
2021/04/13 13:52:56;;;;;;;29.83;20.92;;;359.00;2252.80;;;;;;4784008;30;20092;-80
2021/04/13 13:55:24;;;;;;;24.05;16.55;;;358.40;2304.00;;;;;;4773107;30;20055;-81
2021/04/13 13:58:23;;;;;;;40.28;32.08;;;333.70;2329.60;;;;;;4785898;30;20047;-83
2021/04/13 14:00:50;;;;;;;22.30;16.20;;;333.10;2329.60;;;;;;4773007;30;20071;-83
2021/04/13 14:03:29;;;;;;;25.08;19.05;;;333.70;2227.20;;;;;;4803933;29;20047;-82
2021/04/13 14:06:06;;;;;;;24.48;18.33;;;333.10;2329.60;;;;;;4791203;30;20460;-81
2021/04/13 14:08:35;;;;;;;24.63;17.80;;;332.90;2329.60;;;;;;4794876;30;20050;-82
2021/04/13 14:11:11;;;;;;;22.27;15.65;;;308.10;2304.00;;;;;;4795435;29;20484;-81
2021/04/13 14:13:40;;;;;;;28.75;19.38;;;332.80;2329.60;;;;;;4795758;30;20043;-80
2021/04/13 14:16:44;;;;;;;24.58;17.67;;;307.80;2304.00;;;;;;4797092;29;20047;-83
2021/04/13 14:19:27;;;;;;;35.05;23.17;;;307.80;2304.00;;;;;;4794502;29;20059;-83
2021/04/13 14:21:59;;;;;;;26.98;20.13;;;307.70;2304.00;;;;;;4792916;30;20047;-81
2021/04/13 14:24:30;;;;;;;24.37;17.30;;;307.60;2304.00;;;;;;4789387;29;20047;-81
2021/04/13 14:27:14;;;;;;;27.90;19.08;;;307.50;2304.00;;;;;;4783727;29;20804;-82
2021/04/13 14:30:01;;;;;;;23.38;16.77;;;307.30;2304.00;;;;;;4789820;29;20032;-82
2021/04/13 14:32:29;;;;;;;24.25;17.50;;;307.30;2304.00;;;;;;4789474;29;20398;-82
2021/04/13 14:34:56;;;;;;;27.73;17.98;;;307.30;2304.00;;;;;;4781812;30;20108;-81
2021/04/13 14:37:44;;;;;;;25.02;17.60;;;282.40;2278.40;;;;;;4785016;30;20039;-81
2021/04/13 14:40:22;;;;;;;28.80;20.77;;;307.20;2304.00;;;;;;4796618;29;20039;-81
2021/04/13 14:42:57;;;;;;;25.10;18.52;;;307.30;2304.00;;;;;;4791933;29;20059;-85
2021/04/13 14:45:26;;;;;;;40.53;32.40;;;282.50;2278.40;;;;;;4791143;29;20039;-84
2021/04/13 14:48:08;;;;;;;23.42;18.73;;;307.20;2304.00;;;;;;4790796;29;20481;-87
2021/04/13 14:51:28;;;;;;;21.05;14.55;;;307.50;2304.00;;;;;;4783961;30;20058;-85
2021/04/13 14:53:55;;;;;;;24.20;16.50;;;282.50;2278.40;;;;;;4783678;30;20028;-88
2021/04/13 14:56:21;;;;;;;24.08;18.58;;;282.40;2278.40;;;;;;4764010;30;20064;-83
2021/04/13 14:58:48;;;;;;;19.65;15.30;;;282.50;2278.40;;;;;;4761515;30;20158;-82
2021/04/13 15:01:14;;;;;;;22.88;16.48;;;282.40;2278.40;;;;;;4762812;30;20048;-82
2021/04/13 15:03:40;;;;;;;28.23;19.08;;;282.30;2278.40;;;;;;4755272;30;20044;-82
2021/04/13 15:06:07;;;;;;;37.33;23.65;;;282.10;2278.40;;;;;;4756046;30;20090;-83
2021/04/13 15:08:34;;;;;;;37.22;27.73;;;282.20;2278.40;;;;;;4756736;30;20101;-83
2021/04/13 15:11:01;;;;;;;37.90;27.02;;;282.30;2278.40;;;;;;4757344;30;20142;-83
2021/04/13 15:13:28;;;;;;;37.95;24.02;;;282.20;2278.40;;;;;;4772231;30;20062;-81
2021/04/13 15:15:55;;;;;;;32.30;21.70;;;281.70;2278.40;;;;;;4761802;30;20139;-82
2021/04/13 15:18:21;;;;;;;23.15;16.48;;;256.80;2252.80;;;;;;4760945;30;20032;-83
2021/04/13 15:20:49;;;;;;;22.40;16.02;;;281.60;2278.40;;;;;;4757993;30;20035;-84
2021/04/13 15:23:17;;;;;;;30.83;19.48;;;256.80;2252.80;;;;;;4761618;30;20597;-84
2021/04/13 15:25:53;;;;;;;26.42;18.92;;;256.40;2252.80;;;;;;4780071;30;20044;-84
2021/04/13 15:28:20;;;;;;;25.73;18.15;;;256.60;2252.80;;;;;;4784139;30;20040;-83
2021/04/13 15:30:50;;;;;;;27.02;18.00;;;256.80;2252.80;;;;;;4776485;30;20036;-84
2021/04/13 15:33:27;;;;;;;25.63;16.90;;;256.50;2252.80;;;;;;4802879;29;20043;-85
2021/04/13 15:36:00;;;;;;;29.42;18.15;;;256.20;2252.80;;;;;;4804584;29;20154;-86
2021/04/13 15:38:26;;;;;;;20.48;15.43;;;256.20;2252.80;;;;;;4780855;29;20051;-81
2021/04/13 15:40:58;;;;;;;20.98;14.60;;;231.30;2252.80;;;;;;4779617;30;20048;-83
2021/04/13 15:43:34;;;;;;;22.67;14.60;;;256.10;2252.80;;;;;;4784900;29;20504;-85
2021/04/13 15:46:28;;;;;;;20.70;13.57;;;256.10;2252.80;;;;;;4798483;29;20120;-83
2021/04/13 15:49:09;;;;;;;27.42;15.35;;;231.20;2252.80;;;;;;4770166;30;20039;-84
2021/04/13 15:51:35;;;;;;;30.08;16.88;;;231.20;2252.80;;;;;;4770048;30;20404;-84
2021/04/13 15:54:03;;;;;;;27.45;16.02;;;231.10;2252.80;;;;;;4770082;30;20044;-85
2021/04/13 15:56:29;;;;;;;26.73;17.73;;;231.20;2252.80;;;;;;4770927;30;20396;-84
2021/04/13 15:58:56;;;;;;;36.70;23.48;;;256.00;2252.80;;;;;;4770911;30;20039;-84
2021/04/13 16:01:24;;;;;;;27.75;17.73;;;231.20;2252.80;;;;;;4770267;30;20048;-83
2021/04/13 16:03:50;;;;;;;24.88;16.17;;;231.10;2252.80;;;;;;4779918;29;20042;-81
2021/04/13 16:06:18;;;;;;;31.23;21.58;;;231.00;2252.80;;;;;;4788124;29;20071;-85
2021/04/13 16:08:44;;;;;;;25.90;16.25;;;231.10;2252.80;;;;;;4786058;29;20123;-83
2021/04/13 16:11:11;;;;;;;27.83;18.98;;;231.10;2252.80;;;;;;4787347;29;20138;-83
2021/04/13 16:13:37;;;;;;;18.58;13.73;;;230.90;2252.80;;;;;;4786822;30;20046;-83
2021/04/13 16:16:03;;;;;;;18.55;13.23;;;231.10;2252.80;;;;;;4801681;29;20035;-82
2021/04/13 16:18:32;;;;;;;21.13;11.93;;;230.90;2252.80;;;;;;4801943;29;20570;-82
2021/04/13 16:20:59;;;;;;;15.57;11.70;;;230.80;2252.80;;;;;;4788248;29;20425;-83
2021/04/13 16:23:37;;;;;;;17.15;12.20;;;230.40;2252.80;;;;;;4786786;29;20039;-82
2021/04/13 16:26:12;;;;;;;20.40;13.18;;;230.60;2252.80;;;;;;4787225;29;20035;-83
2021/04/13 16:28:39;;;;;;;25.63;15.88;;;230.50;2252.80;;;;;;4783957;29;20485;-83
2021/04/13 16:31:57;;;;;;;27.55;15.40;;;230.80;2252.80;;;;;;4792517;29;20039;-82
2021/04/13 16:34:35;;;;;;;31.15;19.05;;;230.40;2252.80;;;;;;4787462;29;20051;-82
2021/04/13 16:37:27;;;;;;;41.13;26.30;;;230.40;2252.80;;;;;;4781213;29;20047;-85
2021/04/13 16:40:14;;;;;;;32.53;19.60;;;230.60;2252.80;;;;;;4783641;30;20043;-83
2021/04/13 16:43:01;;;;;;;50.95;28.77;;;230.80;2252.80;;;;;;4785246;29;20031;-83
2021/04/13 16:45:58;;;;;;;36.90;23.77;;;230.80;2252.80;;;;;;4774519;30;20158;-83
2021/04/13 16:48:35;;;;;;;42.17;25.25;;;230.70;2252.80;;;;;;4751164;30;20136;-80
2021/04/13 16:51:10;;;;;;;26.08;17.60;;;230.70;2252.80;;;;;;4749595;30;20048;-82
2021/04/13 16:53:36;;;;;;;18.73;13.25;;;230.60;2252.80;;;;;;4750620;30;20071;-84
2021/04/13 16:56:05;;;;;;;20.63;14.55;;;205.70;2252.80;;;;;;4742116;30;20063;-81
2021/04/13 16:58:32;;;;;;;21.65;14.32;;;205.70;2252.80;;;;;;4734415;30;20064;-80
2021/04/13 17:01:01;;;;;;;24.52;16.50;;;205.70;2252.80;;;;;;4731519;30;20061;-81
2021/04/13 17:03:39;;;;;;;34.30;18.75;;;230.50;2252.80;;;;;;4733499;30;20135;-82
2021/04/13 17:06:14;;;;;;;28.50;16.75;;;230.50;2252.80;;;;;;4712474;30;20080;-82
2021/04/13 17:08:55;;;;;;;26.92;17.70;;;230.60;2252.80;;;;;;4711796;30;20047;-82
2021/04/13 17:11:23;;;;;;;28.75;19.20;;;205.60;2252.80;;;;;;4720012;30;20499;-82
2021/04/13 17:14:22;;;;;;;28.23;16.73;;;205.50;2252.80;;;;;;4704178;30;20060;-81
2021/04/13 17:22:53;;;;;;;34.92;23.15;;;205.50;2252.80;;;;;;2578039;24;20457;-81
2021/04/13 17:25:34;;;;;;;27.10;18.65;;;205.50;2252.80;;;;;;4805920;29;20062;-84
2021/04/13 17:28:12;;;;;;;32.63;20.08;;;205.50;2252.80;;;;;;4814243;29;20038;-84
2021/04/13 17:31:07;;;;;;;21.48;14.82;;;205.70;2252.80;;;;;;4806543;29;20039;-85
2021/04/13 17:33:59;;;;;;;17.33;12.43;;;205.40;2252.80;;;;;;4821835;29;20035;-87
2021/04/13 17:36:38;;;;;;;19.92;14.32;;;230.80;2252.80;;;;;;4793736;29;20043;-84
2021/04/13 17:39:22;;;;;;;20.73;13.10;;;205.70;2252.80;;;;;;4797212;29;20062;-85
2021/04/13 17:41:57;;;;;;;21.30;14.05;;;230.70;2252.80;;;;;;4779554;30;20046;-88
2021/04/13 17:44:27;;;;;;;20.83;13.85;;;230.80;2252.80;;;;;;4781162;30;20846;-87
2021/04/13 17:47:04;;;;;;;20.42;13.50;;;230.60;2252.80;;;;;;4779482;30;20035;-87
2021/04/13 17:49:32;;;;;;;24.08;16.45;;;230.40;2252.80;;;;;;4779054;30;20095;-87
2021/04/13 17:51:58;;;;;;;20.27;12.68;;;230.40;2252.80;;;;;;4778703;30;20047;-87
2021/04/13 17:54:25;;;;;;;18.58;11.75;;;205.70;2252.80;;;;;;4775949;30;20045;-87
2021/04/13 17:57:06;;;;;;;16.98;11.30;;;205.40;2252.80;;;;;;4793429;29;20504;-90
2021/04/13 17:59:36;;;;;;;17.92;13.10;;;205.30;2252.80;;;;;;4808794;29;20038;-87
2021/04/13 18:02:39;;;;;;;19.63;13.70;;;205.50;2252.80;;;;;;4794304;29;20046;-87
2021/04/13 18:05:55;;;;;;;20.75;13.45;;;205.40;2252.80;;;;;;4772672;29;20043;-84
2021/04/13 18:12:17;;;;;;;23.88;13.98;;;205.40;2252.80;;;;;;4721706;30;20106;-86
2021/04/13 18:18:20;;;;;;;14.45;11.00;;;205.50;2252.80;;;;;;4725017;30;20060;-86
2021/04/13 18:24:23;;;;;;;16.35;9.15;;;205.50;2252.80;;;;;;4940581;24;20058;-85
2021/04/13 18:26:50;;;;;;;17.85;10.35;;;205.40;2252.80;;;;;;4794579;29;20047;-87
2021/04/13 18:29:22;;;;;;;16.33;11.35;;;205.40;2252.80;;;;;;4795027;29;20042;-85
2021/04/13 18:35:08;;;;;;;14.50;11.75;;;205.20;2252.80;;;;;;4810803;29;20076;-87
2021/04/13 18:37:54;;;;;;;12.23;9.45;;;205.20;2252.80;;;;;;4793596;29;20068;-85
2021/04/13 18:40:35;;;;;;;18.63;10.63;;;205.20;2252.80;;;;;;4797930;29;20126;-86
2021/04/13 18:43:10;;;;;;;46.97;29.10;;;205.10;2252.80;;;;;;4803196;29;20483;-87
2021/04/13 18:45:45;;;;;;;61.15;35.83;;;205.10;2252.80;;;;;;4812965;29;20031;-87
2021/04/13 18:48:27;;;;;;;28.00;18.88;;;205.20;2252.80;;;;;;4810977;29;20039;-87
2021/04/13 18:51:26;;;;;;;31.92;20.85;;;205.10;2252.80;;;;;;4808488;29;20544;-86
2021/04/13 18:54:01;;;;;;;28.85;20.20;;;205.20;2252.80;;;;;;4796466;29;20096;-88
2021/04/13 18:56:51;;;;;;;23.13;15.52;;;205.20;2252.80;;;;;;4796296;29;20049;-87
2021/04/13 18:59:47;;;;;;;26.10;18.75;;;205.10;2252.80;;;;;;4794413;29;20092;-88
2021/04/13 19:02:29;;;;;;;22.60;15.13;;;205.20;2252.80;;;;;;4798463;29;20058;-90
2021/04/13 19:04:59;;;;;;;22.92;13.50;;;205.10;2252.80;;;;;;4794277;29;20070;-88
2021/04/13 19:07:39;;;;;;;20.17;13.25;;;205.00;2252.80;;;;;;4787294;24;20106;-89
2021/04/13 19:10:27;;;;;;;16.65;11.85;;;205.00;2252.80;;;;;;4765203;30;20056;-90
2021/04/13 19:12:58;;;;;;;18.65;13.27;;;204.90;2252.80;;;;;;4798041;24;20059;-90
2021/04/13 19:15:44;;;;;;;15.95;11.02;;;180.10;2252.80;;;;;;4789343;29;20099;-90
2021/04/13 19:18:35;;;;;;;16.83;11.32;;;180.10;2252.80;;;;;;4792927;29;20091;-92
2021/04/13 19:21:14;;;;;;;17.37;11.73;;;180.10;2252.80;;;;;;4793431;29;20073;-90
2021/04/13 19:23:47;;;;;;;19.70;12.55;;;204.80;2252.80;;;;;;4793043;29;20034;-89
2021/04/13 19:26:31;;;;;;;16.00;11.27;;;204.80;2252.80;;;;;;4781964;29;20511;-88
2021/04/13 19:29:21;;;;;;;19.13;11.90;;;204.80;2252.80;;;;;;4781731;29;20039;-85
2021/04/13 19:32:06;;;;;;;21.93;12.77;;;180.10;2252.80;;;;;;4798945;29;20035;-84
2021/04/13 19:35:13;;;;;;;17.08;10.80;;;180.10;2252.80;;;;;;4796812;29;20042;-85
2021/04/13 19:44:15;;;;;;;18.27;13.35;;;179.80;2252.80;;;;;;4832735;24;20154;-86
2021/04/13 19:47:03;;;;;;;20.67;11.82;;;179.80;2252.80;;;;;;4818007;29;20041;-91
2021/04/13 19:49:56;;;;;;;16.27;11.10;;;179.90;2252.80;;;;;;4840779;29;20376;-89
2021/04/13 19:57:36;;;;;;;12.23;8.07;;;179.80;2252.80;;;;;;4856692;24;20051;-88
2021/04/13 20:00:31;;;;;;;17.42;8.88;;;179.60;2252.80;;;;;;4812735;29;20056;-89
2021/04/13 20:05:41;;;;;;;16.70;10.27;;;179.30;2252.80;;;;;;4828206;24;20043;-87
2021/04/13 20:13:35;;;;;;;12.40;8.73;;;154.40;2252.80;;;;;;4928937;24;20070;-87
2021/04/13 20:17:08;;;;;;;;;;;;;;;;;;;;;
2021/04/13 20:19:56;;;;;;;12.33;7.77;;;154.40;2252.80;;;;;;4808542;29;20046;-85
2021/04/13 20:26:26;;;;;;;13.13;9.07;;;154.30;2252.80;;;;;;4808311;29;20018;-87
2021/04/13 20:29:21;;;;;;;;;;;;;;;;;;;;;
